createdAt,value
2018-05-16T00:00:51.871Z,8.27
2018-05-16T00:02:27.002Z,7.63
2018-05-16T00:04:02.189Z,8.07
2018-05-16T00:05:37.315Z,8.23
2018-05-16T00:07:13.192Z,7.87
2018-05-16T00:08:49.033Z,8.90
2018-05-16T00:10:24.803Z,8.10
2018-05-16T00:11:59.970Z,8.77
2018-05-16T00:13:37.794Z,8.87
2018-05-16T00:15:14.134Z,8.53
2018-05-16T00:16:49.259Z,8.77
2018-05-16T00:18:25.131Z,8.70
2018-05-16T00:20:00.247Z,9.30
2018-05-16T00:21:35.378Z,8.90
2018-05-16T00:23:11.204Z,9.33
2018-05-16T00:24:46.339Z,9.50
2018-05-16T00:26:21.469Z,9.20
2018-05-16T00:27:57.385Z,9.00
2018-05-16T00:29:33.190Z,8.77
2018-05-16T00:31:08.399Z,9.43
2018-05-16T00:32:43.517Z,11.47
2018-05-16T00:34:18.620Z,11.27
2018-05-16T00:35:53.783Z,12.03
2018-05-16T00:37:28.913Z,12.00
2018-05-16T00:39:04.513Z,14.53
2018-05-16T00:40:39.671Z,15.47
2018-05-16T00:42:14.750Z,14.53
2018-05-16T00:43:49.871Z,13.50
2018-05-16T00:45:25.815Z,13.73
2018-05-16T00:47:00.950Z,13.40
2018-05-16T00:48:36.105Z,13.67
2018-05-16T00:50:12.052Z,13.17
2018-05-16T00:51:47.144Z,13.80
2018-05-16T00:53:23.450Z,13.47
2018-05-16T00:54:59.389Z,13.00
2018-05-16T00:56:34.499Z,13.07
2018-05-16T00:58:10.411Z,12.50
2018-05-16T00:59:46.302Z,14.10
2018-05-16T01:01:21.429Z,12.50
2018-05-16T01:02:56.587Z,14.20
2018-05-16T01:04:31.701Z,14.00
2018-05-16T01:06:06.886Z,13.10
2018-05-16T01:07:42.757Z,13.00
2018-05-16T01:09:19.110Z,13.30
2018-05-16T01:10:54.268Z,13.17
2018-05-16T01:12:29.870Z,12.07
2018-05-16T01:14:04.962Z,13.13
2018-05-16T01:15:40.118Z,12.47
2018-05-16T01:17:15.232Z,12.47
2018-05-16T01:18:51.072Z,12.70
2018-05-16T01:20:26.201Z,13.27
2018-05-16T01:22:01.367Z,13.10
2018-05-16T01:23:36.511Z,13.07
2018-05-16T01:25:13.075Z,13.00
2018-05-16T01:26:48.287Z,13.60
2018-05-16T01:28:23.975Z,12.23
2018-05-16T01:29:59.096Z,13.97
2018-05-16T01:31:34.223Z,13.23
2018-05-16T01:33:09.297Z,13.83
2018-05-16T01:34:44.480Z,14.07
2018-05-16T01:36:19.600Z,14.73
2018-05-16T01:37:55.531Z,14.27
2018-05-16T01:39:30.609Z,14.07
2018-05-16T01:41:05.762Z,14.83
2018-05-16T01:42:40.910Z,14.37
2018-05-16T01:44:16.075Z,14.23
2018-05-16T01:45:53.014Z,14.43
2018-05-16T01:47:28.148Z,14.90
2018-05-16T01:49:22.982Z,14.30
2018-05-16T01:50:58.835Z,12.30
2018-05-16T01:52:33.963Z,14.07
2018-05-16T01:54:09.102Z,13.23
2018-05-16T01:55:44.975Z,14.70
2018-05-16T01:57:21.998Z,14.67
2018-05-16T01:58:57.086Z,15.40
2018-05-16T02:00:32.213Z,14.97
2018-05-16T02:02:07.320Z,15.70
2018-05-16T02:03:42.458Z,18.57
2018-05-16T02:05:17.613Z,16.60
2018-05-16T02:06:52.713Z,16.20
2018-05-16T02:08:28.561Z,18.67
2018-05-16T02:10:03.816Z,15.97
2018-05-16T02:11:39.229Z,16.83
2018-05-16T02:13:15.164Z,17.13
2018-05-16T02:14:50.292Z,18.17
2018-05-16T02:16:26.202Z,18.27
2018-05-16T02:18:01.301Z,17.00
2018-05-16T02:19:37.161Z,17.53
2018-05-16T02:21:12.316Z,17.10
2018-05-16T02:22:48.191Z,17.70
2018-05-16T02:24:24.134Z,18.50
2018-05-16T02:25:59.316Z,18.03
2018-05-16T02:27:34.452Z,16.60
2018-05-16T02:29:10.703Z,17.50
2018-05-16T02:30:46.855Z,16.20
2018-05-16T02:32:22.730Z,15.93
2018-05-16T02:33:57.939Z,15.77
2018-05-16T02:35:33.037Z,16.87
2018-05-16T02:37:08.195Z,17.80
2018-05-16T02:38:43.460Z,16.47
2018-05-16T02:40:18.568Z,16.73
2018-05-16T02:41:54.020Z,17.73
2018-05-16T02:43:29.934Z,17.03
2018-05-16T02:45:05.087Z,17.70
2018-05-16T02:46:40.969Z,16.30
2018-05-16T02:48:16.844Z,16.53
2018-05-16T02:49:51.948Z,16.80
2018-05-16T02:51:27.124Z,17.47
2018-05-16T02:53:02.275Z,16.57
2018-05-16T02:54:37.360Z,17.70
2018-05-16T02:56:12.467Z,18.17
2018-05-16T02:57:47.568Z,18.67
2018-05-16T02:59:23.487Z,19.13
2018-05-16T03:00:58.593Z,18.97
2018-05-16T03:02:34.534Z,18.60
2018-05-16T03:04:09.677Z,19.00
2018-05-16T03:05:45.641Z,18.83
2018-05-16T03:07:21.619Z,19.57
2018-05-16T03:08:56.748Z,20.33
2018-05-16T03:10:31.870Z,19.30
2018-05-16T03:12:08.639Z,19.83
2018-05-16T03:13:43.847Z,20.27
2018-05-16T03:15:19.802Z,21.80
2018-05-16T03:16:54.925Z,19.77
2018-05-16T03:18:30.751Z,19.23
2018-05-16T03:20:05.869Z,19.53
2018-05-16T03:21:41.800Z,20.63
2018-05-16T03:23:16.980Z,18.60
2018-05-16T03:24:52.090Z,18.27
2018-05-16T03:26:27.187Z,17.20
2018-05-16T03:28:03.040Z,18.83
2018-05-16T03:29:38.184Z,17.63
2018-05-16T03:31:13.290Z,18.60
2018-05-16T03:32:48.976Z,19.73
2018-05-16T03:34:24.849Z,18.27
2018-05-16T03:36:04.210Z,19.17
2018-05-16T03:37:39.315Z,18.37
2018-05-16T03:39:15.208Z,18.67
2018-05-16T03:40:50.340Z,18.80
2018-05-16T03:42:25.453Z,18.43
2018-05-16T03:44:01.391Z,17.47
2018-05-16T03:45:36.496Z,17.03
2018-05-16T03:47:12.361Z,16.67
2018-05-16T03:48:47.494Z,15.87
2018-05-16T03:50:23.321Z,17.73
2018-05-16T03:51:59.260Z,18.10
2018-05-16T03:53:34.320Z,17.17
2018-05-16T03:55:09.454Z,16.47
2018-05-16T03:56:45.356Z,16.03
2018-05-16T03:58:38.116Z,17.03
2018-05-16T04:00:31.782Z,16.73
2018-05-16T04:02:24.715Z,17.23
2018-05-16T04:04:17.628Z,17.13
2018-05-16T04:05:52.790Z,16.47
2018-05-16T04:07:29.869Z,17.73
2018-05-16T04:09:05.691Z,16.53
2018-05-16T04:10:41.772Z,17.83
2018-05-16T04:12:16.892Z,17.63
2018-05-16T04:13:52.753Z,16.93
2018-05-16T04:15:27.877Z,15.90
2018-05-16T04:17:03.030Z,17.27
2018-05-16T04:18:38.167Z,15.60
2018-05-16T04:20:13.296Z,16.97
2018-05-16T04:21:48.414Z,18.23
2018-05-16T04:23:23.783Z,17.70
2018-05-16T04:24:59.670Z,16.93
2018-05-16T04:26:34.771Z,16.33
2018-05-16T04:28:09.937Z,15.83
2018-05-16T04:29:45.061Z,14.63
2018-05-16T04:31:20.187Z,15.00
2018-05-16T04:32:55.295Z,16.33
2018-05-16T04:34:30.847Z,14.63
2018-05-16T04:36:05.976Z,13.90
2018-05-16T04:37:41.836Z,13.57
2018-05-16T04:39:17.048Z,14.83
2018-05-16T04:40:52.544Z,13.83
2018-05-16T04:42:27.984Z,15.87
2018-05-16T04:44:03.995Z,15.23
2018-05-16T04:45:39.147Z,15.50
2018-05-16T04:47:15.031Z,15.17
2018-05-16T04:48:50.924Z,14.70
2018-05-16T04:50:27.418Z,15.90
2018-05-16T04:52:03.303Z,14.77
2018-05-16T04:53:39.187Z,14.93
2018-05-16T04:55:16.356Z,14.03
2018-05-16T04:56:52.376Z,14.60
2018-05-16T04:58:28.649Z,13.97
2018-05-16T05:00:04.997Z,14.63
2018-05-16T05:01:40.510Z,14.73
2018-05-16T05:03:15.652Z,14.47
2018-05-16T05:04:51.596Z,13.60
2018-05-16T05:06:26.986Z,15.83
2018-05-16T05:08:09.590Z,16.40
2018-05-16T05:09:45.365Z,17.00
2018-05-16T05:11:21.590Z,15.70
2018-05-16T05:13:00.598Z,18.10
2018-05-16T05:14:36.704Z,18.00
2018-05-16T05:16:12.688Z,18.47
2018-05-16T05:17:47.801Z,18.13
2018-05-16T05:19:22.919Z,19.23
2018-05-16T05:20:58.020Z,19.77
2018-05-16T05:22:33.926Z,19.20
2018-05-16T05:24:09.166Z,20.83
2018-05-16T05:25:45.095Z,21.40
2018-05-16T05:27:20.902Z,21.93
2018-05-16T05:28:56.172Z,22.50
2018-05-16T05:30:32.515Z,23.97
2018-05-16T05:32:07.853Z,23.53
2018-05-16T05:33:42.937Z,24.40
2018-05-16T05:35:18.035Z,24.13
2018-05-16T05:36:53.204Z,25.90
2018-05-16T05:38:29.374Z,23.93
2018-05-16T05:40:04.517Z,25.17
2018-05-16T05:41:39.983Z,26.10
2018-05-16T05:43:15.906Z,25.80
2018-05-16T05:44:51.621Z,26.83
2018-05-16T05:46:27.131Z,26.30
2018-05-16T05:48:02.263Z,25.80
2018-05-16T05:49:37.450Z,26.27
2018-05-16T05:51:12.586Z,26.23
2018-05-16T05:52:48.589Z,26.90
2018-05-16T05:54:23.702Z,27.33
2018-05-16T05:55:58.838Z,27.00
2018-05-16T05:57:33.956Z,26.20
2018-05-16T05:59:11.055Z,25.80
2018-05-16T06:00:46.986Z,26.03
2018-05-16T06:02:24.227Z,26.07
2018-05-16T06:03:59.422Z,24.93
2018-05-16T06:05:34.849Z,25.63
2018-05-16T06:07:10.283Z,24.73
2018-05-16T06:08:45.564Z,26.73
2018-05-16T06:10:31.419Z,25.43
2018-05-16T06:12:07.784Z,24.97
2018-05-16T06:13:43.001Z,25.53
2018-05-16T06:24:21.767Z,26.20
2018-05-16T06:25:56.976Z,28.27
2018-05-16T06:27:32.829Z,27.30
2018-05-16T06:29:07.940Z,27.93
2018-05-16T06:30:43.039Z,27.43
2018-05-16T06:32:18.173Z,27.40
2018-05-16T06:33:53.282Z,25.97
2018-05-16T06:35:33.719Z,26.63
2018-05-16T06:37:14.862Z,25.33
2018-05-16T06:38:55.205Z,27.27
2018-05-16T06:40:31.285Z,27.60
2018-05-16T06:42:07.170Z,29.30
2018-05-16T06:43:42.736Z,27.63
2018-05-16T06:45:25.873Z,27.63
2018-05-16T06:47:00.964Z,28.67
2018-05-16T06:48:38.288Z,29.67
2018-05-16T06:50:14.397Z,29.90
2018-05-16T06:51:49.546Z,29.53
2018-05-16T06:53:24.651Z,29.20
2018-05-16T06:55:00.268Z,32.40
2018-05-16T06:56:36.908Z,33.00
2018-05-16T06:58:12.788Z,33.27
2018-05-16T06:59:47.947Z,33.30
2018-05-16T07:01:23.043Z,32.83
2018-05-16T07:02:58.143Z,32.00
2018-05-16T07:04:34.491Z,29.80
2018-05-16T07:06:17.390Z,29.67
2018-05-16T07:07:52.604Z,32.43
2018-05-16T07:09:27.888Z,32.60
2018-05-16T07:11:03.423Z,31.13
2018-05-16T07:12:38.654Z,31.43
2018-05-16T07:14:15.621Z,30.57
2018-05-16T07:15:51.208Z,30.37
2018-05-16T07:17:26.395Z,29.27
2018-05-16T07:19:02.122Z,31.83
2018-05-16T07:20:37.304Z,31.67
2018-05-16T07:22:12.421Z,31.83
2018-05-16T07:23:47.530Z,32.33
2018-05-16T07:25:22.712Z,32.17
2018-05-16T07:26:59.053Z,34.97
2018-05-16T07:28:34.166Z,34.00
2018-05-16T07:30:09.394Z,33.60
2018-05-16T07:31:44.517Z,33.87
2018-05-16T07:33:19.669Z,36.47
2018-05-16T07:34:54.772Z,35.20
2018-05-16T07:36:30.780Z,33.33
2018-05-16T07:38:06.797Z,34.77
2018-05-16T07:39:43.520Z,33.37
2018-05-16T07:41:20.716Z,32.63
2018-05-16T07:42:56.865Z,33.67
2018-05-16T07:44:32.116Z,31.83
2018-05-16T07:46:15.484Z,32.80
2018-05-16T07:47:50.635Z,33.70
2018-05-16T07:49:26.002Z,36.33
2018-05-16T07:51:01.174Z,34.57
2018-05-16T07:52:39.877Z,35.47
2018-05-16T07:54:15.018Z,36.83
2018-05-16T07:55:50.272Z,37.93
2018-05-16T07:57:25.529Z,36.47
2018-05-16T07:59:28.434Z,37.17
2018-05-16T08:01:03.753Z,34.80
2018-05-16T08:02:38.948Z,36.80
2018-05-16T08:04:14.826Z,37.77
2018-05-16T08:05:50.045Z,36.67
2018-05-16T08:07:28.270Z,35.17
2018-05-16T08:09:04.129Z,34.90
2018-05-16T08:10:39.741Z,36.10
2018-05-16T08:12:15.594Z,31.60
2018-05-16T08:13:50.777Z,32.83
2018-05-16T08:15:25.914Z,32.50
2018-05-16T08:17:01.080Z,33.63
2018-05-16T08:18:37.636Z,31.90
2018-05-16T08:20:13.632Z,31.30
2018-05-16T08:21:48.920Z,32.73
2018-05-16T08:23:49.265Z,32.60
2018-05-16T08:25:26.784Z,30.77
2018-05-16T08:27:14.867Z,30.63
2018-05-16T08:28:50.577Z,27.77
2018-05-16T08:30:40.430Z,27.43
2018-05-16T08:32:15.542Z,28.47
2018-05-16T08:33:50.667Z,26.57
2018-05-16T08:35:55.757Z,25.90
2018-05-16T08:37:30.929Z,26.87
2018-05-16T08:39:07.383Z,29.63
2018-05-16T08:40:42.747Z,30.83
2018-05-16T08:42:33.068Z,29.60
2018-05-16T08:45:52.478Z,28.70
2018-05-16T08:47:51.448Z,31.37
2018-05-16T08:49:26.762Z,32.07
2018-05-16T08:52:49.993Z,31.80
2018-05-16T08:54:25.787Z,31.33
2018-05-16T08:56:01.842Z,33.40
2018-05-16T08:57:37.116Z,32.67
2018-05-16T08:59:12.541Z,35.27
2018-05-16T09:10:09.000Z,34.30
2018-05-16T09:11:46.089Z,33.80
2018-05-16T09:13:21.552Z,34.00
2018-05-16T09:14:57.269Z,33.53
2018-05-16T09:16:32.393Z,30.63
2018-05-16T09:18:07.915Z,33.70
2018-05-16T09:19:43.033Z,32.50
2018-05-16T09:21:18.177Z,32.30
2018-05-16T09:22:54.003Z,33.87
2018-05-16T09:24:30.098Z,32.00
2018-05-16T09:26:05.567Z,31.73
2018-05-16T09:27:41.853Z,32.77
2018-05-16T09:29:17.810Z,32.67
2018-05-16T09:30:53.572Z,33.90
2018-05-16T09:32:29.705Z,32.93
2018-05-16T09:34:07.242Z,35.20
2018-05-16T09:35:43.020Z,35.03
2018-05-16T09:37:20.066Z,34.33
2018-05-16T09:39:01.045Z,33.53
2018-05-16T09:40:42.465Z,33.30
2018-05-16T09:42:23.770Z,33.47
2018-05-16T09:44:04.285Z,31.80
2018-05-16T09:45:50.050Z,32.40
2018-05-16T09:47:28.600Z,31.50
2018-05-16T09:49:05.658Z,31.93
2018-05-16T09:50:43.654Z,29.23
2018-05-16T09:52:19.598Z,31.77
2018-05-16T09:54:09.074Z,29.23
2018-05-16T09:55:56.770Z,29.57
2018-05-16T10:00:09.328Z,31.77
2018-05-16T10:01:45.248Z,30.53
2018-05-16T10:03:20.377Z,32.20
2018-05-16T10:04:56.113Z,30.03
2018-05-16T10:06:32.151Z,30.10
2018-05-16T10:08:08.852Z,29.90
2018-05-16T10:09:52.656Z,31.80
2018-05-16T10:11:28.745Z,28.67
2018-05-16T10:13:06.231Z,29.00
2018-05-16T10:14:42.097Z,29.97
2018-05-16T10:16:17.289Z,28.30
2018-05-16T10:17:52.488Z,28.30
2018-05-16T10:19:27.963Z,27.83
2018-05-16T10:21:05.307Z,25.93
2018-05-16T10:22:42.159Z,28.23
2018-05-16T10:24:18.281Z,25.13
2018-05-16T10:25:53.497Z,25.70
2018-05-16T10:27:31.209Z,25.87
2018-05-16T10:29:08.218Z,27.13
2018-05-16T10:30:48.353Z,28.37
2018-05-16T10:32:24.327Z,28.33
2018-05-16T10:34:01.638Z,25.63
2018-05-16T10:35:53.553Z,27.07
2018-05-16T10:39:40.907Z,27.33
2018-05-16T10:41:16.797Z,28.03
2018-05-16T10:42:52.114Z,26.57
2018-05-16T10:44:28.417Z,26.93
2018-05-16T10:46:09.486Z,24.73
2018-05-16T10:47:44.832Z,24.77
2018-05-16T10:49:20.124Z,23.33
2018-05-16T10:50:57.512Z,23.70
2018-05-16T10:52:34.382Z,24.47
2018-05-16T10:54:16.159Z,24.10
2018-05-16T10:55:53.486Z,24.60
2018-05-16T10:57:30.821Z,24.07
2018-05-16T10:59:06.068Z,24.03
2018-05-16T16:35:21.942Z,13.00
2018-05-16T16:36:57.056Z,12.33
2018-05-16T16:38:35.686Z,11.80
2018-05-16T16:40:11.330Z,13.13
2018-05-16T16:41:47.292Z,12.23
2018-05-16T16:43:22.396Z,12.47
2018-05-16T16:44:57.545Z,13.30
2018-05-16T16:46:32.629Z,13.50
2018-05-16T16:48:07.790Z,12.03
2018-05-16T16:49:42.915Z,12.70
2018-05-16T16:51:18.044Z,11.90
2018-05-16T16:52:53.256Z,11.03
2018-05-16T16:54:33.897Z,11.70
2018-05-16T16:56:08.927Z,11.40
2018-05-16T16:57:44.089Z,11.37
2018-05-16T16:59:19.220Z,7.77
2018-05-16T17:00:55.396Z,10.40
2018-05-16T17:02:30.585Z,10.33
2018-05-16T17:04:05.714Z,8.10
2018-05-16T17:05:40.823Z,6.07
2018-05-16T17:07:16.819Z,6.53
2018-05-16T17:08:53.019Z,6.77
2018-05-16T17:10:28.769Z,7.43
2018-05-16T17:12:03.952Z,7.93
2018-05-16T17:13:40.538Z,7.03
2018-05-16T17:15:15.857Z,6.47
2018-05-16T17:16:51.382Z,7.43
2018-05-16T17:18:27.619Z,6.70
2018-05-16T17:20:05.617Z,7.10
2018-05-16T17:21:42.587Z,6.57
2018-05-16T17:23:19.236Z,6.73
2018-05-16T17:24:55.093Z,6.80
2018-05-16T17:26:31.442Z,6.53
2018-05-16T17:28:06.647Z,6.17
2018-05-16T17:29:42.593Z,6.83
2018-05-16T17:31:19.672Z,6.30
2018-05-16T17:32:57.195Z,6.60
2018-05-16T17:34:33.151Z,5.80
2018-05-16T17:36:09.544Z,6.53
2018-05-16T17:37:50.741Z,6.97
2018-05-16T17:39:25.873Z,6.40
2018-05-16T17:41:00.973Z,6.67
2018-05-16T17:42:36.120Z,6.40
2018-05-16T17:44:11.234Z,6.83
2018-05-16T17:45:47.199Z,6.60
2018-05-16T17:47:22.637Z,6.77
2018-05-16T17:49:03.814Z,6.17
2018-05-16T17:50:39.504Z,7.10
2018-05-16T17:52:15.844Z,6.10
2018-05-16T17:53:51.206Z,6.27
2018-05-16T17:55:30.701Z,6.73
2018-05-16T17:57:06.435Z,5.73
2018-05-16T17:58:42.305Z,6.73
2018-05-16T18:00:18.469Z,6.40
2018-05-16T18:01:55.486Z,6.87
2018-05-16T18:03:30.649Z,6.23
2018-05-16T18:05:06.605Z,7.17
2018-05-16T18:06:41.788Z,6.30
2018-05-16T18:08:16.985Z,7.03
2018-05-16T18:09:52.317Z,6.40
2018-05-16T18:11:27.440Z,6.50
2018-05-16T18:26:28.921Z,7.87
2018-05-16T18:28:03.789Z,8.27
2018-05-16T18:29:41.499Z,7.77
2018-05-16T18:31:19.885Z,8.03
2018-05-16T18:32:55.902Z,7.97
2018-05-16T18:34:31.344Z,7.03
2018-05-16T18:36:06.883Z,7.57
2018-05-16T18:37:40.809Z,7.50
2018-05-16T18:39:14.692Z,6.87
2018-05-16T18:40:50.090Z,7.70
2018-05-16T18:42:24.908Z,7.10
2018-05-16T18:44:00.184Z,8.23
2018-05-16T18:45:36.614Z,8.03
2018-05-16T18:47:13.089Z,8.00
2018-05-16T18:48:48.506Z,9.40
2018-05-16T18:50:23.839Z,8.40
2018-05-16T18:53:39.765Z,7.83
2018-05-16T18:55:16.801Z,7.70
2018-05-16T18:56:50.686Z,7.23
2018-05-16T18:58:25.471Z,7.40
2018-05-16T18:59:59.608Z,7.80
2018-05-16T19:01:34.405Z,8.17
2018-05-16T19:03:09.393Z,7.40
2018-05-16T19:04:43.804Z,6.80
2018-05-16T19:06:18.606Z,6.60
2018-05-16T19:07:53.635Z,7.23
2018-05-16T19:09:29.014Z,6.70
2018-05-16T19:11:03.567Z,6.27
2018-05-16T19:12:40.757Z,7.30
2018-05-16T19:14:15.358Z,6.83
2018-05-16T19:15:54.170Z,6.80
2018-05-16T19:17:31.114Z,6.70
2018-05-16T19:20:56.830Z,6.27
2018-05-16T19:22:38.511Z,6.37
2018-05-16T19:24:13.977Z,6.13
2018-05-16T19:25:50.626Z,7.20
2018-05-16T19:27:24.562Z,6.80
2018-05-16T19:28:59.233Z,6.97
2018-05-16T19:30:45.299Z,6.20
2018-05-16T19:32:21.817Z,6.50
2018-05-16T19:33:57.721Z,7.17
2018-05-16T19:35:32.049Z,6.17
2018-05-16T19:37:06.525Z,6.90
2018-05-16T19:38:48.080Z,6.40
2018-05-16T19:40:24.924Z,7.00
2018-05-16T19:42:07.621Z,7.33
2018-05-16T19:43:43.625Z,7.20
2018-05-16T19:45:17.580Z,7.03
2018-05-16T19:46:53.167Z,7.20
2018-05-16T19:48:28.694Z,7.20
2018-05-16T19:50:03.399Z,6.53
2018-05-16T19:51:37.312Z,6.10
2018-05-16T19:53:11.493Z,6.57
2018-05-16T19:54:46.142Z,7.20
2018-05-16T19:56:21.964Z,7.30
2018-05-16T19:57:55.866Z,6.20
2018-05-16T19:59:31.588Z,6.63
2018-05-16T20:01:06.546Z,7.33
2018-05-16T20:02:41.365Z,6.50
2018-05-16T20:04:15.221Z,6.90
2018-05-16T20:05:49.095Z,6.87
2018-05-16T20:07:23.004Z,6.23
2018-05-16T20:08:59.157Z,6.50
2018-05-16T20:10:34.993Z,6.30
2018-05-16T20:12:09.360Z,6.10
2018-05-16T20:13:45.581Z,6.63
2018-05-16T20:15:19.767Z,6.90
2018-05-16T20:16:53.628Z,6.83
2018-05-16T20:18:27.526Z,6.90
2018-05-16T20:20:02.253Z,6.70
2018-05-16T20:21:37.201Z,6.27
2018-05-16T20:23:11.091Z,6.37
2018-05-16T20:24:45.929Z,6.50
2018-05-16T20:26:22.452Z,6.90
2018-05-16T20:27:57.059Z,5.63
2018-05-16T20:29:31.034Z,6.17
2018-05-16T20:31:05.915Z,7.00
2018-05-16T20:32:40.530Z,6.50
2018-05-16T20:34:15.918Z,6.50
2018-05-16T20:35:50.721Z,6.10
2018-05-16T20:37:24.589Z,5.90
2018-05-16T20:38:59.107Z,6.17
2018-05-16T20:40:34.062Z,5.87
2018-05-16T20:42:09.593Z,5.87
2018-05-16T20:43:46.053Z,6.17
2018-05-16T20:45:20.055Z,6.30
2018-05-16T20:47:02.097Z,6.80
2018-05-16T20:48:35.989Z,6.93
2018-05-16T20:50:12.179Z,7.20
2018-05-16T20:51:46.507Z,6.27
2018-05-16T20:53:21.029Z,6.37
2018-05-16T20:54:56.992Z,6.03
2018-05-16T20:56:30.897Z,6.27
2018-05-16T20:58:05.532Z,6.27
2018-05-16T20:59:41.129Z,6.67
2018-05-16T21:01:17.802Z,6.13
2018-05-16T21:02:52.474Z,7.20
2018-05-16T21:04:26.980Z,6.20
2018-05-16T21:06:02.741Z,6.20
2018-05-16T21:07:37.278Z,6.80
2018-05-16T21:09:13.598Z,5.40
2018-05-16T21:10:50.126Z,5.80
2018-05-16T21:12:24.043Z,5.77
2018-05-16T21:13:59.949Z,5.80
2018-05-16T21:15:34.582Z,5.60
2018-05-16T21:17:08.968Z,5.30
2018-05-16T21:18:46.812Z,5.70
2018-05-16T21:20:21.189Z,4.97
2018-05-16T21:21:55.470Z,4.80
2018-05-16T21:23:29.765Z,4.93
2018-05-16T21:25:04.055Z,4.90
2018-05-16T21:26:38.417Z,4.90
2018-05-16T21:28:12.875Z,5.20
2018-05-16T21:29:51.281Z,5.10
2018-05-16T21:31:26.821Z,5.60
2018-05-16T21:33:00.713Z,5.40
2018-05-16T21:34:34.601Z,5.00
2018-05-16T21:36:08.760Z,5.03
2018-05-16T21:37:43.444Z,4.70
2018-05-16T21:43:27.563Z,4.93
2018-05-16T21:45:01.486Z,5.20
2018-05-16T21:46:36.308Z,5.07
2018-05-16T21:48:10.170Z,5.00
2018-05-16T21:49:44.322Z,4.80
2018-05-16T21:51:19.616Z,4.47
2018-05-16T21:52:54.358Z,5.00
2018-05-16T21:54:28.235Z,4.50
2018-05-16T21:56:02.206Z,4.77
2018-05-16T21:57:36.053Z,4.70
2018-05-16T21:59:09.960Z,5.43
2018-05-16T22:00:43.864Z,5.07
2018-05-16T22:02:18.970Z,5.27
2018-05-16T22:03:56.659Z,5.13
2018-05-16T22:05:30.537Z,4.90
2018-05-16T22:09:10.033Z,4.50
2018-05-16T22:10:57.893Z,5.20
2018-05-16T22:12:32.560Z,4.97
2018-05-16T22:14:06.466Z,5.13
2018-05-16T22:15:40.732Z,4.47
2018-05-16T22:17:15.213Z,4.20
2018-05-16T22:18:50.338Z,4.47
2018-05-16T22:20:28.092Z,4.10
2018-05-16T22:22:03.245Z,4.30
2018-05-16T22:23:37.202Z,4.67
2018-05-16T22:25:11.073Z,4.60
2018-05-16T22:26:46.168Z,4.70
2018-05-16T22:28:20.060Z,4.77
2018-05-16T22:29:55.777Z,4.57
2018-05-16T22:31:36.531Z,4.67
2018-05-16T22:33:17.597Z,4.63
2018-05-16T22:34:59.446Z,4.47
2018-05-16T22:36:40.344Z,4.40
2018-05-16T22:38:19.905Z,5.10
2018-05-16T22:39:59.340Z,4.90
2018-05-16T22:41:40.174Z,4.93
2018-05-16T22:43:13.593Z,5.10
2018-05-16T22:57:27.928Z,6.30
2018-05-16T22:59:02.482Z,5.60
2018-05-16T23:00:37.867Z,6.10
2018-05-16T23:02:11.746Z,6.00
2018-05-16T23:03:46.152Z,5.37
2018-05-16T23:05:21.170Z,6.30
2018-05-16T23:06:57.447Z,6.10
2018-05-16T23:08:33.818Z,6.23
2018-05-16T23:10:09.165Z,5.67
2018-05-16T23:11:44.353Z,5.90
2018-05-16T23:13:18.955Z,5.60
2018-05-16T23:14:52.852Z,5.83
2018-05-16T23:16:26.764Z,6.27
2018-05-16T23:20:07.015Z,6.30
2018-05-16T23:21:42.246Z,6.40
2018-05-16T23:23:16.124Z,6.03
2018-05-16T23:24:51.680Z,6.43
2018-05-16T23:26:25.561Z,6.07
2018-05-16T23:28:00.178Z,6.30
2018-05-16T23:29:35.316Z,5.47
2018-05-16T23:31:11.045Z,6.07
2018-05-16T23:32:46.119Z,5.90
2018-05-16T23:34:22.320Z,6.67
2018-05-16T23:35:57.020Z,6.30
2018-05-16T23:37:30.934Z,6.27
2018-05-16T23:39:07.496Z,5.87
2018-05-16T23:40:42.088Z,6.50
2018-05-16T23:42:18.035Z,5.90
2018-05-16T23:43:51.922Z,6.33
2018-05-16T23:45:26.642Z,6.30
2018-05-16T23:47:00.561Z,5.77
2018-05-16T23:48:36.689Z,5.93
2018-05-16T23:50:13.361Z,6.83
2018-05-16T23:51:48.206Z,6.63
2018-05-16T23:53:22.610Z,7.10
2018-05-16T23:54:56.548Z,6.73
2018-05-16T23:56:30.457Z,6.47
2018-05-16T23:58:04.382Z,7.20
2018-05-16T23:59:39.955Z,7.20
